createdAt,value
2022-11-24T10:59:26.186Z,4.28
2022-11-24T11:04:36.170Z,3.28
2022-11-24T11:09:40.461Z,4.32
2022-11-24T11:14:44.731Z,3.33
2022-11-24T11:19:50.672Z,2.60
2022-11-24T11:25:06.934Z,2.58
2022-11-24T11:36:11.774Z,6.07
2022-11-24T11:41:39.299Z,3.75
2022-11-24T11:46:44.390Z,3.33
2022-11-24T11:52:09.289Z,2.97
2022-11-24T11:57:48.236Z,2.95
2022-11-24T12:03:27.147Z,3.97
2022-11-24T12:09:11.419Z,5.38
2022-11-24T12:14:39.558Z,3.65
2022-11-24T12:19:52.897Z,3.85
2022-11-24T12:25:31.856Z,3.58
2022-11-24T12:30:52.661Z,2.83
2022-11-24T12:36:45.883Z,4.10
2022-11-24T12:42:09.389Z,3.35
2022-11-24T12:47:39.377Z,3.25
2022-11-24T12:53:02.385Z,2.70
2022-11-24T12:58:31.091Z,2.05
2022-11-24T13:03:50.855Z,3.00
2022-11-24T13:08:56.386Z,2.60
2022-11-24T13:14:07.971Z,2.83
2022-11-24T13:19:20.898Z,5.00
2022-11-24T13:24:28.130Z,4.82
2022-11-24T13:29:37.132Z,5.22
2022-11-24T13:34:41.165Z,6.68
2022-11-24T13:39:51.621Z,5.18
2022-11-24T13:45:04.131Z,5.22
2022-11-24T13:50:11.331Z,5.70
2022-11-24T13:55:16.597Z,6.90
2022-11-24T14:00:32.553Z,7.53
2022-11-24T14:05:55.437Z,8.38
2022-11-24T14:11:03.417Z,5.18
2022-11-24T14:16:10.951Z,7.15
2022-11-24T14:21:21.145Z,6.75
2022-11-24T14:26:30.066Z,15.13
2022-11-24T14:31:34.611Z,8.35
2022-11-24T14:36:42.550Z,11.68
2022-11-24T14:42:01.060Z,9.02
2022-11-24T14:47:14.567Z,9.27
2022-11-24T14:52:21.404Z,10.05
2022-11-24T14:57:37.608Z,8.20
2022-11-24T15:02:49.220Z,5.38
2022-11-24T15:08:03.355Z,7.20
2022-11-24T15:13:21.517Z,5.45
2022-11-24T15:18:48.595Z,7.05
2022-11-24T15:24:17.673Z,4.63
2022-11-24T15:29:22.849Z,4.45
2022-11-24T15:34:26.882Z,12.90
2022-11-24T15:39:32.230Z,5.05
2022-11-24T15:44:37.372Z,5.25
2022-11-24T15:49:42.586Z,5.75
2022-11-24T15:54:46.295Z,10.43
2022-11-24T15:59:50.930Z,18.45
2022-11-24T16:04:55.918Z,21.50
2022-11-24T16:10:00.285Z,15.20
2022-11-24T16:15:05.980Z,9.48
2022-11-24T16:20:10.117Z,18.48
2022-11-24T16:25:14.899Z,13.85
2022-11-24T16:30:20.548Z,14.93
2022-11-24T16:35:48.203Z,10.90
2022-11-24T16:40:56.980Z,15.40
2022-11-24T16:46:10.389Z,26.05
2022-11-24T16:51:15.261Z,12.73
2022-11-24T16:56:20.118Z,15.02
2022-11-24T17:01:24.541Z,11.85
2022-11-24T17:06:28.182Z,25.05
2022-11-24T17:11:33.185Z,28.00
2022-11-24T17:16:38.674Z,15.35
2022-11-24T17:21:43.160Z,14.77
2022-11-24T17:26:49.129Z,26.67
2022-11-24T17:31:53.169Z,55.38
2022-11-24T17:36:57.097Z,28.00
2022-11-24T17:42:01.949Z,25.15
2022-11-24T17:47:07.694Z,28.60
2022-11-24T17:52:12.653Z,37.58
2022-11-24T17:57:17.143Z,22.35
2022-11-24T18:02:22.859Z,21.80
2022-11-24T18:07:27.860Z,20.77
2022-11-24T18:12:33.657Z,23.52
2022-11-24T18:17:38.123Z,25.50
2022-11-24T18:23:04.534Z,28.02
2022-11-24T18:28:07.116Z,23.63
2022-11-24T18:33:12.072Z,17.45
2022-11-24T18:38:15.751Z,19.45
2022-11-24T18:43:19.539Z,20.02
2022-11-24T18:48:26.465Z,19.13
2022-11-24T18:53:31.583Z,14.93
2022-11-24T18:58:36.764Z,21.08
2022-11-24T19:03:49.218Z,15.15
2022-11-24T19:08:54.809Z,25.13
2022-11-24T19:13:59.434Z,30.90
2022-11-24T19:19:05.382Z,31.90
2022-11-24T19:24:10.795Z,29.48
2022-11-24T19:29:16.308Z,31.30
2022-11-24T19:34:22.014Z,27.33
2022-11-24T19:39:26.161Z,32.83
2022-11-24T19:44:32.153Z,57.97
2022-11-24T19:49:39.721Z,35.80
2022-11-24T19:54:44.353Z,30.10
2022-11-24T19:59:49.143Z,30.88
2022-11-24T20:04:52.835Z,36.65
2022-11-24T20:09:57.012Z,54.20
2022-11-24T20:15:01.586Z,31.33
2022-11-24T20:20:08.613Z,40.00
2022-11-24T20:25:13.449Z,28.42
2022-11-24T20:30:18.530Z,26.73
2022-11-24T20:35:23.797Z,30.63
2022-11-24T20:40:28.877Z,25.65
2022-11-24T20:45:33.457Z,47.60
2022-11-24T20:50:40.226Z,51.75
2022-11-24T20:55:44.422Z,37.45
2022-11-24T21:00:49.697Z,29.88
2022-11-24T21:05:57.030Z,32.85
2022-11-24T21:11:04.913Z,37.55
2022-11-24T21:16:24.398Z,35.67
2022-11-24T21:21:34.832Z,30.98
2022-11-24T21:26:42.275Z,35.47
2022-11-24T21:31:46.719Z,34.55
2022-11-24T21:36:51.628Z,49.65
2022-11-24T21:41:56.118Z,29.33
2022-11-24T21:46:59.898Z,34.83
2022-11-24T21:52:04.717Z,32.28
2022-11-24T21:57:08.871Z,33.70
2022-11-24T22:02:13.583Z,38.05
2022-11-24T22:07:17.085Z,41.83
2022-11-24T22:12:21.513Z,46.00
2022-11-24T22:17:26.696Z,42.67
2022-11-24T22:22:29.814Z,39.85
2022-11-24T22:27:34.008Z,35.00
2022-11-24T22:32:38.788Z,49.13
2022-11-24T22:37:43.065Z,58.00
2022-11-24T22:42:46.958Z,44.40
2022-11-24T22:47:55.471Z,44.17
2022-11-24T22:53:00.306Z,30.92
2022-11-24T22:58:05.716Z,35.05
2022-11-24T23:03:10.731Z,25.80
2022-11-24T23:08:15.847Z,30.25
2022-11-24T23:13:20.207Z,30.33
2022-11-24T23:18:24.036Z,34.40
2022-11-24T23:23:29.527Z,27.08
2022-11-24T23:28:34.152Z,34.80
2022-11-24T23:33:39.362Z,38.80
2022-11-24T23:38:44.194Z,21.83
2022-11-24T23:43:49.558Z,16.13
2022-11-24T23:48:55.149Z,18.70
2022-11-24T23:54:01.006Z,17.67
2022-11-24T23:59:05.831Z,20.63
